createdAt,value
2022-09-16T00:00:00.182Z,0.00
2022-09-16T00:10:00.135Z,0.00
2022-09-16T00:20:00.154Z,0.00
2022-09-16T00:30:00.157Z,0.00
2022-09-16T00:40:00.262Z,0.00
2022-09-16T00:50:00.124Z,0.00
2022-09-16T01:00:00.187Z,0.00
2022-09-16T01:10:00.132Z,0.00
2022-09-16T01:20:00.154Z,0.00
2022-09-16T01:30:00.150Z,0.00
2022-09-16T01:40:00.270Z,0.00
2022-09-16T01:50:00.133Z,0.00
2022-09-16T02:00:00.205Z,0.00
2022-09-16T02:10:00.113Z,0.00
2022-09-16T02:20:00.177Z,0.00
2022-09-16T02:30:00.110Z,0.00
2022-09-16T02:40:00.276Z,0.00
2022-09-16T02:50:00.165Z,0.00
2022-09-16T03:00:00.156Z,0.00
2022-09-16T03:10:00.174Z,0.00
2022-09-16T03:20:00.193Z,0.00
2022-09-16T03:30:00.126Z,0.00
2022-09-16T03:40:00.289Z,0.00
2022-09-16T03:50:00.137Z,0.00
2022-09-16T04:00:00.150Z,0.00
2022-09-16T04:10:00.141Z,0.45
2022-09-16T04:20:00.196Z,3.74
2022-09-16T04:30:00.125Z,6.67
2022-09-16T04:40:04.659Z,36.67
2022-09-16T04:50:00.153Z,98.33
2022-09-16T05:00:00.176Z,188.33
2022-09-16T05:10:00.136Z,258.33
2022-09-16T05:30:00.142Z,508.33
2022-09-16T05:40:00.313Z,665.00
2022-09-16T05:50:00.130Z,663.33
2022-09-16T06:00:00.265Z,691.67
2022-09-16T06:10:00.135Z,740.00
2022-09-16T06:20:01.161Z,901.67
2022-09-16T06:30:00.151Z,1273.33
2022-09-16T06:40:00.349Z,1173.33
2022-09-16T06:50:00.144Z,1008.33
2022-09-16T07:00:01.335Z,1061.67
2022-09-16T07:10:00.139Z,1295.00
2022-09-16T07:20:00.447Z,1868.33
2022-09-16T07:30:00.452Z,958.33
2022-09-16T07:40:00.336Z,1998.33
2022-09-16T07:50:00.148Z,1651.67
2022-09-16T08:00:00.254Z,1931.67
2022-09-16T08:10:00.147Z,2046.67
2022-09-16T08:30:00.256Z,2776.67
2022-09-16T08:40:00.425Z,2163.33
2022-09-16T08:50:00.151Z,2616.67
2022-09-16T09:10:00.176Z,2220.00
2022-09-16T09:30:00.180Z,2501.67
2022-09-16T09:40:00.402Z,1908.33
2022-09-16T09:50:00.114Z,2948.33
2022-09-16T10:00:00.245Z,1978.33
2022-09-16T10:10:00.146Z,2251.67
2022-09-16T10:20:00.285Z,3116.67
2022-09-16T10:30:00.100Z,4840.00
2022-09-16T10:40:00.390Z,3910.00
2022-09-16T10:50:00.115Z,2273.33
2022-09-16T11:00:00.263Z,1455.00
2022-09-16T11:10:00.156Z,32713.33
2022-09-16T11:20:00.458Z,28940.00
2022-09-16T11:30:00.144Z,3328.33
2022-09-16T11:40:00.407Z,33710.00
2022-09-16T11:50:00.143Z,36980.00
2022-09-16T12:10:00.180Z,34093.33
2022-09-16T12:30:00.156Z,31633.33
2022-09-16T12:40:00.373Z,34833.33
2022-09-16T12:50:00.123Z,4651.67
2022-09-16T13:10:00.142Z,29520.00
2022-09-16T13:20:00.282Z,29810.00
2022-09-16T13:30:00.149Z,28246.67
2022-09-16T13:40:00.346Z,10240.00
2022-09-16T13:50:00.369Z,13553.33
2022-09-16T14:00:00.327Z,1483.33
2022-09-16T14:10:00.177Z,12968.33
2022-09-16T14:20:00.296Z,1973.33
2022-09-16T14:30:00.169Z,12211.67
2022-09-16T14:40:00.349Z,2210.00
2022-09-16T14:50:01.031Z,3193.33
2022-09-16T15:00:00.314Z,10886.67
2022-09-16T15:10:00.169Z,9268.33
2022-09-16T15:20:00.262Z,1825.00
2022-09-16T15:30:00.242Z,2415.00
2022-09-16T15:40:01.537Z,2255.00
2022-09-16T15:50:00.230Z,5096.67
2022-09-16T16:00:00.252Z,6578.33
2022-09-16T16:10:00.157Z,1375.00
2022-09-16T16:30:01.498Z,966.67
2022-09-16T16:40:00.354Z,2371.67
2022-09-16T16:50:00.138Z,1893.33
2022-09-16T17:00:00.309Z,528.33
2022-09-16T17:10:00.161Z,328.75
2022-09-16T17:20:02.058Z,75.00
2022-09-16T17:30:00.142Z,25.00
2022-09-16T17:40:00.338Z,11.21
2022-09-16T17:50:00.137Z,1.70
2022-09-16T18:00:00.253Z,0.23
2022-09-16T18:10:00.147Z,0.00
2022-09-16T18:20:03.767Z,0.00
2022-09-16T18:30:00.116Z,0.00
2022-09-16T18:40:00.333Z,0.00
2022-09-16T18:50:00.121Z,0.00
2022-09-16T19:00:01.328Z,0.00
2022-09-16T19:10:00.170Z,0.00
2022-09-16T19:20:00.243Z,0.00
2022-09-16T19:30:00.143Z,0.00
2022-09-16T19:40:01.394Z,0.00
2022-09-16T19:50:00.122Z,0.00
2022-09-16T20:00:00.270Z,0.00
2022-09-16T20:10:00.161Z,0.00
2022-09-16T20:20:00.261Z,0.00
2022-09-16T20:30:00.116Z,0.00
2022-09-16T20:40:01.858Z,0.00
2022-09-16T20:50:00.137Z,0.00
2022-09-16T21:00:00.275Z,0.00
2022-09-16T21:10:00.137Z,0.00
2022-09-16T21:20:00.244Z,0.00
2022-09-16T21:30:00.140Z,0.00
2022-09-16T21:40:00.337Z,0.00
2022-09-16T21:50:00.153Z,0.00
2022-09-16T22:00:00.304Z,0.00
2022-09-16T22:10:00.149Z,0.00
2022-09-16T22:20:00.273Z,0.00
2022-09-16T22:30:00.154Z,0.00
2022-09-16T22:40:00.344Z,0.00
2022-09-16T22:50:00.143Z,0.00
2022-09-16T23:00:00.296Z,0.00
2022-09-16T23:10:00.136Z,0.00
2022-09-16T23:20:00.265Z,0.00
2022-09-16T23:30:00.165Z,0.00
2022-09-16T23:40:01.276Z,0.00
2022-09-16T23:50:00.174Z,0.00
